Time;durP1;ratioP1;P1;durP2;ratioP2;P2;SDS_P1;SDS_P2;PMS_P1;PMS_P2;Temp;Humidity;BMP_temperature;BMP_pressure;BME280_temperature;BME280_humidity;BME280_pressure;Samples;Min_cycle;Max_cycle;Signal;HPM_P1;HPM_P2
2022/12/06 00:01:30;;;;;;;14.60;3.55;;;5.70;99.90;;;;;;6252425;22;20019;-89
2022/12/06 00:03:57;;;;;;;7.57;3.08;;;;;;;;;;6226723;22;20012;-89
2022/12/06 00:06:24;;;;;;;6.82;3.50;;;;;;;;;;6226983;22;20145;-88
2022/12/06 00:08:51;;;;;;;9.35;3.60;;;;;;;;;;6226596;22;20012;-89
2022/12/06 00:11:19;;;;;;;11.02;3.10;;;;;;;;;;6226571;22;20430;-89
2022/12/06 00:13:45;;;;;;;5.43;3.22;;;;;;;;;;6226470;22;20022;-89
2022/12/06 00:16:13;;;;;;;10.60;2.65;;;;;;;;;;6250861;22;20041;-88
2022/12/06 00:18:40;;;;;;;4.43;2.70;;;;;;;;;;6222364;22;20016;-88
2022/12/06 00:21:07;;;;;;;6.35;2.95;;;;;;;;;;6250783;22;20016;-88
2022/12/06 00:23:35;;;;;;;5.25;3.03;;;;;;;;;;6225811;22;20023;-89
2022/12/06 00:26:01;;;;;;;9.50;3.97;;;;;;;;;;6225516;22;20019;-89
2022/12/06 00:28:28;;;;;;;6.45;3.40;;;;;;;;;;6225376;22;20015;-88
2022/12/06 00:31:01;;;;;;;9.48;3.40;;;;;;;;;;6226828;22;20020;-88
2022/12/06 00:33:27;;;;;;;10.40;3.03;;;;;;;;;;6225333;22;20048;-89
2022/12/06 00:35:58;;;;;;;6.90;2.95;;;;;;;;;;6250746;22;20047;-88
2022/12/06 00:38:24;;;;;;;7.25;2.83;;;;;;;;;;6225290;22;20471;-88
2022/12/06 00:40:50;;;;;;;11.50;3.42;;;;;;;;;;6226839;22;20020;-89
2022/12/06 00:43:16;;;;;;;4.57;2.60;;;;;;;;;;6250500;22;20016;-89
2022/12/06 00:45:43;;;;;;;9.38;3.00;;;;;;;;;;6225621;22;20051;-89
2022/12/06 00:48:09;;;;;;;4.78;2.70;;;;;;;;;;6226388;22;20016;-89
2022/12/06 00:50:35;;;;;;;4.75;2.40;;;;;;;;;;6251833;22;20019;-89
2022/12/06 00:53:01;;;;;;;13.48;2.47;;;;;;;;;;6225629;22;20345;-89
2022/12/06 00:55:28;;;;;;;5.13;2.63;;;;;;;;;;6249978;22;20016;-89
2022/12/06 00:57:54;;;;;;;6.60;2.95;;;;;;;;;;6250448;22;20016;-89
2022/12/06 01:00:20;;;;;;;3.60;2.72;;;;;;;;;;6225909;22;20015;-89
2022/12/06 01:02:46;;;;;;;10.32;2.45;;;;;;;;;;6225149;22;20457;-89
2022/12/06 01:05:12;;;;;;;8.15;2.70;;;;;;;;;;6225268;22;20011;-89
2022/12/06 01:07:38;;;;;;;6.90;2.13;;;;;;;;;;6225702;22;20447;-89
2022/12/06 01:10:04;;;;;;;6.43;2.55;;;;;;;;;;6226145;22;20019;-89
2022/12/06 01:12:30;;;;;;;4.50;2.00;;;;;;;;;;6225082;22;20098;-89
2022/12/06 01:14:57;;;;;;;3.50;2.35;;;;;;;;;;6224969;22;20051;-89
2022/12/06 01:17:23;;;;;;;2.55;1.75;;;;;;;;;;6225117;22;20016;-89
2022/12/06 01:19:49;;;;;;;3.47;2.15;;;;;;;;;;6208791;23;20461;-89
2022/12/06 01:22:15;;;;;;;3.88;2.17;;;;;;;;;;6219920;23;20488;-89
2022/12/06 01:24:41;;;;;;;5.20;1.85;;;;;;;;;;6194820;23;20450;-89
2022/12/06 01:27:07;;;;;;;4.22;2.65;;;;;;;;;;6194752;23;20466;-89
2022/12/06 01:29:33;;;;;;;5.95;2.05;;;;;;;;;;6219957;23;20106;-89
2022/12/06 01:31:59;;;;;;;4.57;1.70;;;;;;;;;;6220124;23;20472;-89
2022/12/06 01:34:25;;;;;;;1.40;1.27;;;;;;;;;;6195973;23;20016;-89
2022/12/06 01:36:51;;;;;;;3.95;2.00;;;;;;;;;;6194805;23;20012;-89
2022/12/06 01:39:17;;;;;;;3.50;1.63;;;;;;;;;;6194671;23;20020;-89
2022/12/06 01:41:43;;;;;;;3.92;2.55;;;;;;;;;;6219702;23;20019;-89
2022/12/06 01:44:48;;;;;;;2.15;1.38;;;4.90;99.90;;;;;;6195457;23;20314;-89
2022/12/06 01:47:18;;;;;;;3.15;1.58;;;;;;;;;;6219649;23;20400;-90
2022/12/06 01:49:45;;;;;;;3.88;1.40;;;;;;;;;;6194756;23;20337;-89
2022/12/06 01:52:12;;;;;;;2.78;1.48;;;;;;;;;;6219832;23;20457;-90
2022/12/06 01:54:39;;;;;;;2.75;1.88;;;;;;;;;;6219848;23;20385;-89
2022/12/06 01:57:06;;;;;;;2.20;1.35;;;;;;;;;;6219654;23;20353;-89
2022/12/06 01:59:32;;;;;;;4.78;2.10;;;;;;;;;;6194863;23;20115;-89
2022/12/06 02:01:58;;;;;;;5.45;2.72;;;;;;;;;;6220466;23;20016;-89
2022/12/06 02:04:25;;;;;;;3.40;1.70;;;;;;;;;;6195340;23;20023;-91
2022/12/06 02:06:52;;;;;;;2.30;1.60;;;;;;;;;;6194872;23;20012;-89
2022/12/06 02:09:18;;;;;;;3.63;1.40;;;;;;;;;;6219715;23;20016;-90
2022/12/06 02:11:46;;;;;;;3.25;1.60;;;;;;;;;;6221017;23;20100;-91
2022/12/06 02:14:14;;;;;;;5.05;1.75;;;;;;;;;;6219585;23;20461;-89
2022/12/06 02:16:44;;;;;;;3.85;1.70;;;;;;;;;;6194688;22;20012;-90
2022/12/06 02:19:28;;;;;;;2.85;1.83;;;;;;;;;;6227370;22;20020;-89
2022/12/06 02:22:00;;;;;;;5.20;1.85;;;;;;;;;;6224769;22;20019;-89
2022/12/06 02:24:38;;;;;;;2.80;1.85;;;;;;;;;;6224734;22;20027;-91
2022/12/06 02:27:43;;;;;;;2.55;2.15;;;5.10;99.90;;;;;;6225477;22;20020;-89
2022/12/06 02:30:12;;;;;;;3.50;1.90;;;;;;;;;;6224968;22;20024;-90
2022/12/06 02:32:50;;;;;;;5.55;2.33;;;;;;;;;;6249902;22;20016;-90
2022/12/06 02:35:23;;;;;;;4.65;2.38;;;;;;;;;;6224390;22;20035;-90
2022/12/06 02:38:13;;;;;;;13.27;2.20;;;;;;;;;;6224663;22;20016;-90
2022/12/06 02:40:42;;;;;;;3.03;2.05;;;;;;;;;;6251091;22;20019;-90
2022/12/06 02:43:10;;;;;;;2.38;1.92;;;;;;;;;;6224482;22;20164;-89
2022/12/06 02:45:39;;;;;;;2.08;1.95;;;;;;;;;;6250259;22;20016;-90
2022/12/06 02:48:05;;;;;;;2.42;2.22;;;;;;;;;;6224418;22;20019;-89
2022/12/06 02:50:36;;;;;;;2.28;1.65;;;;;;;;;;6224515;22;20012;-89
2022/12/06 02:53:02;;;;;;;4.30;2.25;;;;;;;;;;6250344;22;20019;-89
2022/12/06 02:55:29;;;;;;;2.42;1.70;;;;;;;;;;6224423;22;20353;-91
2022/12/06 02:57:56;;;;;;;3.42;1.92;;;;;;;;;;6225142;22;20023;-92
2022/12/06 03:00:28;;;;;;;8.30;2.35;;;;;;;;;;6224473;22;20158;-89
2022/12/06 03:03:13;;;;;;;10.30;2.40;;;4.90;99.90;;;;;;6225168;22;20019;-89
2022/12/06 03:05:41;;;;;;;4.45;1.73;;;;;;;;;;6249767;22;20091;-89
2022/12/06 03:08:12;;;;;;;2.30;2.05;;;;;;;;;;6224680;22;20342;-91
2022/12/06 03:10:38;;;;;;;4.25;1.55;;;;;;;;;;6224483;22;20012;-90
2022/12/06 03:13:18;;;;;;;3.83;2.40;;;;;;;;;;6249775;22;20094;-90
2022/12/06 03:15:47;;;;;;;6.57;2.83;;;;;;;;;;6224208;22;20016;-89
2022/12/06 03:18:39;;;;;;;8.35;1.95;;;;;;;;;;6250214;22;20341;-89
2022/12/06 03:21:05;;;;;;;3.95;1.75;;;;;;;;;;6246204;22;20035;-89
2022/12/06 03:23:35;;;;;;;2.58;1.95;;;;;;;;;;6226230;22;20020;-89
2022/12/06 03:26:01;;;;;;;3.60;2.25;;;;;;;;;;6226345;22;20020;-89
2022/12/06 03:28:28;;;;;;;2.45;1.52;;;;;;;;;;6251555;22;20073;-89
2022/12/06 03:30:58;;;;;;;2.67;2.03;;;;;;;;;;6227407;22;20095;-89
2022/12/06 03:33:24;;;;;;;9.48;2.13;;;;;;;;;;6226177;22;20091;-89
2022/12/06 03:35:52;;;;;;;6.22;2.17;;;;;;;;;;6252849;22;20015;-90
2022/12/06 03:38:20;;;;;;;5.82;2.17;;;;;;;;;;6251458;22;20022;-90
2022/12/06 03:40:49;;;;;;;2.00;1.80;;;;;;;;;;6226323;22;20356;-90
2022/12/06 03:43:15;;;;;;;2.10;1.90;;;;;;;;;;6251434;22;20016;-90
2022/12/06 03:45:53;;;;;;;3.75;1.60;;;;;;;;;;6226115;22;20077;-89
2022/12/06 03:48:22;;;;;;;4.43;2.47;;;;;;;;;;6226184;22;20011;-89
2022/12/06 03:50:51;;;;;;;2.28;1.38;;;;;;;;;;6226180;22;20075;-89
2022/12/06 03:53:18;;;;;;;4.22;1.80;;;;;;;;;;6251282;22;20011;-91
2022/12/06 03:55:44;;;;;;;2.72;1.88;;;;;;;;;;6251323;22;20022;-90
2022/12/06 03:58:11;;;;;;;3.83;1.70;;;;;;;;;;6251000;22;20101;-90
2022/12/06 04:00:37;;;;;;;2.45;1.63;;;;;;;;;;6226209;22;20026;-91
2022/12/06 04:03:03;;;;;;;1.77;1.60;;;;;;;;;;6226138;22;20055;-91
2022/12/06 04:05:29;;;;;;;2.13;1.40;;;;;;;;;;6225888;22;20015;-91
2022/12/06 04:07:55;;;;;;;4.78;1.95;;;;;;;;;;6251190;22;20484;-90
2022/12/06 04:10:21;;;;;;;2.38;1.40;;;;;;;;;;6225901;22;20019;-90
2022/12/06 04:13:00;;;;;;;2.78;1.80;;;;;;;;;;6226052;22;20582;-90
2022/12/06 04:15:26;;;;;;;5.63;1.75;;;;;;;;;;6225683;22;20539;-90
2022/12/06 04:18:12;;;;;;;4.43;2.20;;;;;;;;;;6225664;22;20043;-90
2022/12/06 04:23:30;;;;;;;2.78;1.35;;;;;;;;;;6159934;23;20021;-91
2022/12/06 04:25:56;;;;;;;1.77;1.63;;;;;;;;;;6160192;23;20024;-90
2022/12/06 04:39:22;;;;;;;2.88;2.40;;;;;;;;;;6159851;23;20076;-91
2022/12/06 04:44:33;;;;;;;2.47;2.20;;;;;;;;;;6160868;23;20064;-89
2022/12/06 04:46:59;;;;;;;4.93;2.67;;;;;;;;;;6159524;23;20017;-89
2022/12/06 04:49:25;;;;;;;3.38;2.13;;;;;;;;;;6134636;23;20048;-89
2022/12/06 04:51:51;;;;;;;3.42;2.25;;;;;;;;;;6134785;23;20013;-88
2022/12/06 04:54:17;;;;;;;2.60;2.17;;;;;;;;;;6159195;23;20095;-88
2022/12/06 04:56:43;;;;;;;3.53;2.08;;;;;;;;;;6134554;23;20017;-89
2022/12/06 04:59:09;;;;;;;4.43;2.80;;;;;;;;;;6159123;23;20052;-88
2022/12/06 05:01:35;;;;;;;3.67;2.50;;;;;;;;;;6244688;22;20023;-88
2022/12/06 05:04:01;;;;;;;5.18;2.63;;;;;;;;;;6225103;22;20026;-89
2022/12/06 05:06:27;;;;;;;3.40;2.58;;;;;;;;;;6225233;22;20020;-89
2022/12/06 05:08:54;;;;;;;4.90;2.15;;;;;;;;;;6225134;22;20022;-89
2022/12/06 05:11:20;;;;;;;8.10;2.55;;;;;;;;;;6225097;22;20016;-89
2022/12/06 05:13:46;;;;;;;2.80;2.05;;;;;;;;;;6250449;22;20012;-88
2022/12/06 05:16:12;;;;;;;6.68;2.60;;;;;;;;;;6250248;22;20022;-89
2022/12/06 05:18:38;;;;;;;2.97;2.35;;;;;;;;;;6224944;22;20392;-89
2022/12/06 05:21:08;;;;;;;9.30;2.78;;;;;;;;;;6225075;22;20161;-89
2022/12/06 05:23:35;;;;;;;2.78;2.30;;;;;;;;;;6250246;22;20023;-89
2022/12/06 05:26:02;;;;;;;5.35;2.67;;;;;;;;;;6225012;22;20019;-88
2022/12/06 05:28:28;;;;;;;3.28;2.83;;;;;;;;;;6225062;22;20023;-89
2022/12/06 05:30:55;;;;;;;6.10;1.98;;;;;;;;;;6225605;22;20038;-89
2022/12/06 05:33:21;;;;;;;5.97;2.05;;;;;;;;;;6226217;22;20016;-89
2022/12/06 05:35:48;;;;;;;2.05;1.85;;;;;;;;;;6225259;22;20090;-89
2022/12/06 05:38:14;;;;;;;3.65;2.10;;;;;;;;;;6225785;22;20023;-89
2022/12/06 05:40:41;;;;;;;3.08;2.55;;;;;;;;;;6226310;22;20019;-89
2022/12/06 05:43:07;;;;;;;4.32;2.40;;;;;;;;;;6250393;22;20341;-89
2022/12/06 05:45:36;;;;;;;4.35;2.53;;;;;;;;;;6226040;22;20075;-89
2022/12/06 05:48:02;;;;;;;3.83;2.60;;;;;;;;;;6226156;22;20024;-89
2022/12/06 05:50:28;;;;;;;4.07;2.40;;;;;;;;;;6226571;22;20023;-89
2022/12/06 05:52:55;;;;;;;4.68;2.97;;;;;;;;;;6225225;22;20376;-89
2022/12/06 05:55:21;;;;;;;3.95;2.50;;;;;;;;;;6225304;22;20051;-89
2022/12/06 05:57:47;;;;;;;5.50;2.35;;;;;;;;;;6226412;22;20110;-89
2022/12/06 06:00:14;;;;;;;4.20;2.28;;;;;;;;;;6250970;22;20107;-89
2022/12/06 06:02:40;;;;;;;2.22;2.03;;;;;;;;;;6226080;22;20023;-89
2022/12/06 06:05:07;;;;;;;4.35;2.58;;;;;;;;;;6226780;22;20020;-91
2022/12/06 06:07:33;;;;;;;7.18;2.40;;;;;;;;;;6226325;22;20465;-91
2022/12/06 06:09:59;;;;;;;5.82;3.13;;;;;;;;;;6251714;22;20020;-89
2022/12/06 06:12:25;;;;;;;7.20;3.00;;;;;;;;;;6226111;22;20019;-91
2022/12/06 06:14:52;;;;;;;8.98;3.38;;;;;;;;;;6225385;22;20420;-91
2022/12/06 06:17:18;;;;;;;5.80;3.78;;;;;;;;;;6225491;22;20015;-91
2022/12/06 06:19:44;;;;;;;6.03;4.57;;;;;;;;;;6210663;23;20028;-90
2022/12/06 06:22:10;;;;;;;7.03;3.63;;;;;;;;;;6196471;23;20012;-92
2022/12/06 06:24:41;;;;;;;6.53;2.67;;;;;;;;;;6196373;23;20464;-90
2022/12/06 06:27:07;;;;;;;5.80;3.17;;;;;;;;;;6195360;23;20016;-90
2022/12/06 06:29:33;;;;;;;4.13;3.10;;;;;;;;;;6247322;23;20099;-89
2022/12/06 06:31:59;;;;;;;4.05;2.70;;;;;;;;;;6195813;23;20012;-91
2022/12/06 06:34:25;;;;;;;10.10;3.00;;;;;;;;;;6195547;23;20012;-89
2022/12/06 06:36:52;;;;;;;6.47;2.90;;;;;;;;;;6220288;23;20016;-90
2022/12/06 06:39:18;;;;;;;6.80;2.65;;;;;;;;;;6195239;23;20016;-91
2022/12/06 06:41:44;;;;;;;9.57;2.50;;;;;;;;;;6195358;23;20074;-90
2022/12/06 06:44:10;;;;;;;4.18;2.70;;;;;;;;;;6196741;23;20047;-91
2022/12/06 06:46:37;;;;;;;4.82;2.40;;;;;;;;;;6195816;23;20450;-91
2022/12/06 06:49:03;;;;;;;5.53;2.28;;;;;;;;;;6194941;23;20136;-91
2022/12/06 06:51:30;;;;;;;7.63;2.38;;;;;;;;;;6195213;23;20016;-91
2022/12/06 06:53:56;;;;;;;6.63;2.42;;;;;;;;;;6195907;23;20012;-91
2022/12/06 06:56:22;;;;;;;3.45;2.63;;;;;;;;;;6198028;23;20055;-91
2022/12/06 06:58:48;;;;;;;4.80;2.65;;;;;;;;;;6198257;23;20008;-90
2022/12/06 07:01:19;;;;;;;7.43;2.83;;;;;;;;;;6222913;23;20027;-89
2022/12/06 07:03:45;;;;;;;6.38;2.60;;;;;;;;;;6198479;23;20015;-90
2022/12/06 07:06:11;;;;;;;7.07;2.97;;;;;;;;;;6197059;23;20454;-90
2022/12/06 07:08:38;;;;;;;6.43;3.03;;;;;;;;;;6222665;23;20136;-89
2022/12/06 07:11:04;;;;;;;6.28;2.75;;;;;;;;;;6222285;23;20528;-90
2022/12/06 07:13:31;;;;;;;3.55;3.03;;;;;;;;;;6196196;23;20012;-90
2022/12/06 07:15:57;;;;;;;4.88;2.25;;;;;;;;;;6196252;22;20026;-89
2022/12/06 07:18:24;;;;;;;3.92;2.65;;;;;;;;;;6221300;23;20023;-90
2022/12/06 07:20:57;;;;;;;12.30;2.72;;;;;;;;;;6224679;22;20026;-90
2022/12/06 07:23:23;;;;;;;3.97;2.35;;;;;;;;;;6227336;22;20024;-90
2022/12/06 07:25:58;;;;;;;2.78;2.45;;;;;;;;;;6226498;22;20042;-89
2022/12/06 07:28:24;;;;;;;3.25;2.40;;;;;;;;;;6226054;22;20019;-90
2022/12/06 07:30:50;;;;;;;3.03;2.50;;;;;;;;;;6251534;22;20603;-90
2022/12/06 07:33:16;;;;;;;4.47;2.65;;;;;;;;;;6226187;22;20055;-90
2022/12/06 07:35:42;;;;;;;5.35;2.58;;;;;;;;;;6251330;22;20067;-90
2022/12/06 07:38:08;;;;;;;4.55;2.10;;;;;;;;;;6226403;22;20018;-90
2022/12/06 07:40:34;;;;;;;3.28;2.97;;;;;;;;;;6251319;22;20051;-89
2022/12/06 07:45:45;;;;;;;5.18;2.58;;;;;;;;;;6251618;22;20020;-90
2022/12/06 07:48:12;;;;;;;2.85;2.33;;;;;;;;;;6252495;22;20047;-91
2022/12/06 07:50:38;;;;;;;3.60;2.45;;;;;;;;;;6227073;22;20016;-91
2022/12/06 07:53:04;;;;;;;3.38;2.30;;;;;;;;;;6228602;22;20015;-91
2022/12/06 07:55:31;;;;;;;5.88;3.38;;;;;;;;;;6227360;22;20053;-91
2022/12/06 07:57:57;;;;;;;4.15;3.05;;;;;;;;;;6228099;22;20448;-91
2022/12/06 08:00:23;;;;;;;4.00;2.75;;;;;;;;;;6231513;22;20015;-91
2022/12/06 08:02:49;;;;;;;4.65;2.50;;;;;;;;;;6232568;22;20016;-91
2022/12/06 08:05:15;;;;;;;5.65;2.35;;;;;;;;;;6232902;22;20012;-91
2022/12/06 08:07:41;;;;;;;10.35;2.17;;;;;;;;;;6232859;22;20023;-91
2022/12/06 08:10:08;;;;;;;5.68;2.42;;;;;;;;;;6253888;22;20011;-90
2022/12/06 08:12:34;;;;;;;2.85;2.20;;;;;;;;;;6232983;22;20465;-92
2022/12/06 08:15:00;;;;;;;8.73;2.15;;;;;;;;;;6258214;22;20062;-91
2022/12/06 08:17:26;;;;;;;5.30;2.70;;;;;;;;;;6232843;22;20016;-91
2022/12/06 08:19:52;;;;;;;6.53;3.15;;;;;;;;;;6219559;23;20020;-92
2022/12/06 08:22:18;;;;;;;4.22;2.83;;;;;;;;;;6226979;23;20457;-92
2022/12/06 08:24:44;;;;;;;5.57;2.97;;;;;;;;;;6203075;23;20078;-91
2022/12/06 08:27:10;;;;;;;2.88;2.65;;;;;;;;;;6227242;23;20323;-91
2022/12/06 08:29:36;;;;;;;6.10;2.83;;;;;;;;;;6202784;23;20020;-91
2022/12/06 08:32:02;;;;;;;6.15;2.60;;;;;;;;;;6227061;23;20048;-90
2022/12/06 08:34:28;;;;;;;5.75;2.88;;;;;;;;;;6226965;23;20012;-92
2022/12/06 08:36:54;;;;;;;10.15;3.47;;;;;;;;;;6202321;23;20145;-91
2022/12/06 08:39:20;;;;;;;4.68;3.45;;;;;;;;;;6200403;23;20012;-91
2022/12/06 08:41:56;;;;;;;6.03;3.28;;;;;;;;;;6221771;23;20020;-90
2022/12/06 08:44:23;;;;;;;7.53;3.38;;;;;;;;;;6196109;23;20016;-90
2022/12/06 08:46:49;;;;;;;7.55;3.65;;;;;;;;;;6223111;23;20094;-91
2022/12/06 08:49:16;;;;;;;5.05;3.28;;;;;;;;;;6196432;23;20016;-90
2022/12/06 08:51:42;;;;;;;12.40;3.55;;;;;;;;;;6197052;23;20048;-90
2022/12/06 08:54:11;;;;;;;6.38;3.70;;;;;;;;;;6197654;23;20020;-90
2022/12/06 08:56:37;;;;;;;14.45;3.88;;;;;;;;;;6195855;23;20020;-91
2022/12/06 08:59:03;;;;;;;6.45;3.55;;;;;;;;;;6195679;23;20095;-90
2022/12/06 09:01:31;;;;;;;10.63;4.43;;;;;;;;;;6195845;23;20020;-91
2022/12/06 09:04:01;;;;;;;5.70;3.25;;;;;;;;;;6196226;23;20012;-91
2022/12/06 09:06:27;;;;;;;5.00;3.38;;;;;;;;;;6195611;23;20016;-90
2022/12/06 09:08:54;;;;;;;12.10;5.13;;;;;;;;;;6220707;23;20027;-90
2022/12/06 09:11:21;;;;;;;6.47;3.85;;;;;;;;;;6220641;23;20027;-91
2022/12/06 09:13:47;;;;;;;11.50;3.35;;;;;;;;;;6195577;23;20012;-91
2022/12/06 09:16:15;;;;;;;4.38;3.40;;;;;;;;;;6197221;23;20024;-89
2022/12/06 09:18:42;;;;;;;10.32;4.13;;;;;;;;;;6228739;23;20453;-89
2022/12/06 09:21:09;;;;;;;4.85;3.88;;;;;;;;;;6229309;22;20027;-89
2022/12/06 09:23:35;;;;;;;5.28;3.00;;;;;;;;;;6260367;22;20583;-89
2022/12/06 09:26:02;;;;;;;6.97;3.42;;;;;;;;;;6260086;22;20050;-90
2022/12/06 09:28:29;;;;;;;4.18;3.30;;;;;;;;;;6251649;22;20016;-91
2022/12/06 09:30:55;;;;;;;8.02;3.25;;;;;;;;;;6225897;22;20440;-90
2022/12/06 09:33:23;;;;;;;4.10;3.00;;;;;;;;;;6250865;22;20016;-89
2022/12/06 09:35:50;;;;;;;4.70;3.83;;;;;;;;;;6225481;22;20016;-90
2022/12/06 09:38:16;;;;;;;7.70;3.58;;;;;;;;;;6225476;22;20012;-90
2022/12/06 09:40:57;;;;;;;5.70;3.50;;;;;;;;;;6250730;22;20027;-89
2022/12/06 09:43:26;;;;;;;10.98;4.10;;;;;;;;;;6250481;22;20459;-89
2022/12/06 09:46:07;;;;;;;9.95;3.50;;;;;;;;;;6250441;22;20015;-89
2022/12/06 09:48:45;;;;;;;6.30;3.80;;;;;;;;;;6225035;22;20360;-89
2022/12/06 09:51:22;;;;;;;4.72;3.60;;;;;;;;;;6224745;22;20012;-89
2022/12/06 09:53:48;;;;;;;4.85;3.53;;;;;;;;;;6250033;22;20472;-90
2022/12/06 09:56:35;;;;;;;3.70;3.30;;;4.40;99.90;;;;;;6225721;22;20038;-90
2022/12/06 09:59:02;;;;;;;12.43;3.33;;;;;;;;;;6225162;22;20019;-90
2022/12/06 10:01:31;;;;;;;3.65;3.25;;;;;;;;;;6224834;22;20065;-89
2022/12/06 10:04:30;;;;;;;3.15;2.85;;;4.60;99.90;;;;;;6250583;22;20043;-89
2022/12/06 10:07:04;;;;;;;5.90;2.88;;;;;;;;;;6224815;22;20453;-88
2022/12/06 10:09:36;;;;;;;3.70;2.65;;;;;;;;;;6225398;22;20457;-88
2022/12/06 10:12:08;;;;;;;6.22;2.65;;;;;;;;;;6225431;22;20042;-90
2022/12/06 10:14:47;;;;;;;15.80;2.90;;;;;;;;;;6224415;22;20477;-90
2022/12/06 10:17:22;;;;;;;8.82;5.00;;;;;;;;;;6224780;22;20020;-91
2022/12/06 10:19:51;;;;;;;5.57;3.70;;;;;;;;;;6240112;23;20430;-89
2022/12/06 10:22:23;;;;;;;4.07;2.58;;;;;;;;;;6219633;23;20074;-89
2022/12/06 10:24:57;;;;;;;4.05;2.28;;;;;;;;;;6219553;23;20008;-90
2022/12/06 10:27:28;;;;;;;4.85;2.10;;;;;;;;;;6195009;23;20016;-90
2022/12/06 10:29:57;;;;;;;2.63;2.42;;;;;;;;;;6194742;23;20016;-90
2022/12/06 10:32:26;;;;;;;3.33;2.25;;;;;;;;;;6194576;23;20116;-91
2022/12/06 10:34:52;;;;;;;3.78;2.03;;;;;;;;;;6219557;23;20027;-90
2022/12/06 10:37:30;;;;;;;3.58;2.50;;;;;;;;;;6194631;23;20367;-89
2022/12/06 10:40:00;;;;;;;3.50;2.42;;;;;;;;;;6194608;23;20020;-90
2022/12/06 10:42:31;;;;;;;3.42;2.33;;;;;;;;;;6195865;23;20054;-89
2022/12/06 10:47:02;;;;;;;2.85;2.45;;;;;;;;;;6194317;23;20330;-89
2022/12/06 10:47:48;;;;;;;3.38;2.40;;;;;;;;;;6220447;23;20043;-88
2022/12/06 10:50:20;;;;;;;6.03;3.42;;;;;;;;;;6194628;23;20016;-89
2022/12/06 10:52:52;;;;;;;2.78;2.42;;;;;;;;;;6194289;23;20342;-88
2022/12/06 10:55:22;;;;;;;4.88;2.50;;;;;;;;;;6194225;23;20450;-89
2022/12/06 10:57:54;;;;;;;5.95;2.22;;;;;;;;;;6194312;23;20465;-89
2022/12/06 11:00:21;;;;;;;2.78;2.47;;;;;;;;;;6194261;23;20016;-89
2022/12/06 11:03:03;;;;;;;2.70;2.42;;;;;;;;;;6195548;23;20044;-89
2022/12/06 11:05:48;;;;;;;3.50;2.25;;;;;;;;;;6194936;23;20012;-89
2022/12/06 11:08:16;;;;;;;2.90;2.30;;;;;;;;;;6220545;23;20016;-89
2022/12/06 11:10:44;;;;;;;5.30;2.67;;;;;;;;;;6194171;23;20012;-89
2022/12/06 11:13:21;;;;;;;3.90;2.40;;;;;;;;;;6194194;23;20016;-89
2022/12/06 11:15:50;;;;;;;4.55;2.67;;;;;;;;;;6193873;22;20039;-89
2022/12/06 11:18:17;;;;;;;4.35;2.60;;;;;;;;;;6194132;23;20016;-88
2022/12/06 11:20:46;;;;;;;4.93;2.40;;;;;;;;;;6208374;22;20024;-89
2022/12/06 11:23:24;;;;;;;5.63;2.90;;;5.80;99.90;;;;;;6224213;22;20023;-89
2022/12/06 11:25:58;;;;;;;2.80;2.05;;;;;;;;;;6250131;22;20039;-89
2022/12/06 11:28:40;;;;;;;3.20;2.55;;;;;;;;;;6224139;22;20027;-89
2022/12/06 11:31:15;;;;;;;6.03;2.75;;;;;;;;;;6249277;22;20012;-89
2022/12/06 11:33:41;;;;;;;3.58;2.30;;;;;;;;;;6224088;22;20022;-88
2022/12/06 11:36:08;;;;;;;5.40;2.83;;;;;;;;;;6224243;22;20091;-89
2022/12/06 11:38:34;;;;;;;5.45;2.53;;;;;;;;;;6224157;22;20479;-89
2022/12/06 11:41:01;;;;;;;4.63;3.45;;;;;;;;;;6225823;22;20055;-89
2022/12/06 11:43:31;;;;;;;2.67;2.42;;;;;;;;;;6225932;22;20019;-89
2022/12/06 11:46:00;;;;;;;4.25;2.42;;;;;;;;;;6226053;22;20019;-88
2022/12/06 11:48:28;;;;;;;2.85;2.50;;;;;;;;;;6251065;22;20047;-89
2022/12/06 11:50:54;;;;;;;2.75;2.50;;;;;;;;;;6225916;22;20061;-88
2022/12/06 11:53:35;;;;;;;3.30;2.15;;;;;;;;;;6225830;22;20023;-88
2022/12/06 11:56:21;;;;;;;6.47;2.20;;;;;;;;;;6227079;22;20099;-88
2022/12/06 11:58:56;;;;;;;2.47;2.00;;;;;;;;;;6225475;22;20073;-89
2022/12/06 12:01:38;;;;;;;4.10;2.10;;;6.30;99.90;;;;;;6225700;22;20046;-89
2022/12/06 12:04:22;;;;;;;3.80;2.05;;;6.20;99.90;;;;;;6250699;22;20024;-89
2022/12/06 12:06:50;;;;;;;5.95;2.22;;;;;;;;;;6225537;22;20102;-89
2022/12/06 12:09:18;;;;;;;2.83;2.53;;;6.30;99.90;;;;;;6225595;22;20025;-89
2022/12/06 12:11:54;;;;;;;3.08;2.35;;;6.20;99.90;;;;;;6225719;22;20396;-89
2022/12/06 12:14:26;;;;;;;4.28;2.47;;;6.20;99.90;;;;;;6225461;22;20115;-89
2022/12/06 12:16:58;;;;;;;5.30;2.35;;;;;;;;;;6225500;22;20016;-90
2022/12/06 12:19:32;;;;;;;2.75;2.33;;;;;;;;;;6225628;22;20012;-89
2022/12/06 12:22:12;;;;;;;5.90;2.33;;;6.30;99.90;;;;;;6225468;22;20069;-89
2022/12/06 12:24:44;;;;;;;3.80;2.20;;;;;;;;;;6250645;22;20020;-89
2022/12/06 12:27:26;;;;;;;3.03;1.65;;;;;;;;;;6250815;22;20015;-89
2022/12/06 12:30:12;;;;;;;2.40;1.90;;;;;;;;;;6225640;22;20149;-89
2022/12/06 12:32:38;;;;;;;2.25;1.83;;;;;;;;;;6250511;22;20016;-89
2022/12/06 12:35:31;;;;;;;3.55;2.00;;;6.50;99.90;;;;;;6225318;22;20023;-90
2022/12/06 12:37:59;;;;;;;3.13;2.35;;;;;;;;;;6221467;22;20012;-89
2022/12/06 12:40:33;;;;;;;2.80;1.98;;;;;;;;;;6226272;22;20016;-89
2022/12/06 12:43:00;;;;;;;2.85;2.30;;;;;;;;;;6250676;22;20054;-89
2022/12/06 12:45:26;;;;;;;4.88;1.88;;;;;;;;;;6250606;22;20090;-90
2022/12/06 12:48:15;;;;;;;6.90;2.47;;;;;;;;;;6225288;22;20019;-90
2022/12/06 12:50:52;;;;;;;4.00;2.10;;;;;;;;;;6105211;23;20025;-89
2022/12/06 12:53:38;;;;;;;4.65;2.03;;;6.40;99.90;;;;;;6155225;23;20018;-89
2022/12/06 12:56:14;;;;;;;4.03;1.92;;;;;;;;;;6105329;23;20025;-90
2022/12/06 12:58:40;;;;;;;4.32;2.05;;;;;;;;;;6105130;23;20024;-90
2022/12/06 13:01:26;;;;;;;6.45;2.33;;;;;;;;;;6154197;23;20060;-90
2022/12/06 13:04:02;;;;;;;3.95;1.70;;;;;;;;;;6129558;23;20014;-90
2022/12/06 13:06:28;;;;;;;6.68;2.13;;;;;;;;;;6154295;23;20017;-90
2022/12/06 13:08:57;;;;;;;8.00;2.58;;;;;;;;;;6105214;23;20485;-89
2022/12/06 13:11:23;;;;;;;4.75;2.22;;;;;;;;;;6105087;23;20080;-89
2022/12/06 13:13:50;;;;;;;6.15;2.00;;;;;;;;;;6104928;23;20021;-89
2022/12/06 13:16:20;;;;;;;3.38;1.90;;;;;;;;;;6154684;23;20017;-90
2022/12/06 13:18:48;;;;;;;2.15;1.83;;;;;;;;;;6154196;23;20045;-90
2022/12/06 13:21:19;;;;;;;2.50;1.90;;;;;;;;;;6154049;23;20108;-89
2022/12/06 13:23:47;;;;;;;3.70;2.25;;;;;;;;;;6154054;23;20022;-90
2022/12/06 13:26:21;;;;;;;1.83;1.63;;;;;;;;;;6105427;23;20029;-89
2022/12/06 13:28:50;;;;;;;3.28;2.28;;;;;;;;;;6220621;22;20019;-89
2022/12/06 13:31:18;;;;;;;2.35;1.77;;;;;;;;;;6224957;22;20395;-89
2022/12/06 13:33:47;;;;;;;3.08;1.85;;;;;;;;;;6250023;22;20065;-89
2022/12/06 13:36:14;;;;;;;7.50;2.25;;;;;;;;;;6251168;22;20042;-89
2022/12/06 13:38:41;;;;;;;6.18;2.30;;;;;;;;;;6251493;22;20023;-89
2022/12/06 13:41:13;;;;;;;4.15;1.80;;;;;;;;;;6224830;22;20015;-89
2022/12/06 13:43:39;;;;;;;4.03;1.70;;;;;;;;;;6224798;22;20469;-90
2022/12/06 13:46:14;;;;;;;5.43;2.33;;;;;;;;;;6224946;22;20077;-90
2022/12/06 13:48:40;;;;;;;1.77;1.65;;;;;;;;;;6224696;22;20098;-90
2022/12/06 13:51:34;;;;;;;2.70;1.70;;;6.80;99.90;;;;;;6224754;22;20448;-89
2022/12/06 13:54:05;;;;;;;2.33;1.60;;;;;;;;;;6224627;22;20011;-89
2022/12/06 13:56:35;;;;;;;1.92;1.38;;;;;;;;;;6224746;22;20141;-90
2022/12/06 13:59:24;;;;;;;2.13;1.60;;;;;;;;;;6249862;22;20050;-89
2022/12/06 14:01:53;;;;;;;5.25;1.63;;;;;;;;;;6224214;22;20015;-90
2022/12/06 14:04:26;;;;;;;2.63;1.30;;;;;;;;;;6224535;22;20016;-90
2022/12/06 14:07:01;;;;;;;4.78;1.75;;;;;;;;;;6224624;22;20449;-88
2022/12/06 14:09:41;;;;;;;3.97;1.45;;;6.70;99.90;;;;;;6224340;22;20023;-88
2022/12/06 14:12:09;;;;;;;2.63;1.48;;;;;;;;;;6224831;22;20034;-89
2022/12/06 14:14:35;;;;;;;1.13;1.00;;;;;;;;;;6249669;22;20019;-89
2022/12/06 14:17:03;;;;;;;2.67;1.20;;;;;;;;;;6224450;22;20115;-89
2022/12/06 14:19:32;;;;;;;1.73;1.23;;;;;;;;;;6224861;22;20019;-89
2022/12/06 14:21:59;;;;;;;1.45;1.20;;;;;;;;;;6194280;23;20453;-89
2022/12/06 14:24:28;;;;;;;1.45;1.35;;;;;;;;;;6194335;23;20019;-90
2022/12/06 14:27:01;;;;;;;2.08;1.20;;;;;;;;;;6219443;23;20094;-90
2022/12/06 14:29:27;;;;;;;3.50;1.60;;;;;;;;;;6219236;23;20042;-90
2022/12/06 14:31:53;;;;;;;1.33;1.23;;;;;;;;;;6194973;23;20024;-89
2022/12/06 14:34:37;;;;;;;3.85;2.20;;;;;;;;;;6194545;23;20016;-89
2022/12/06 14:37:19;;;;;;;;;;;6.80;99.90;;;;;;6194813;23;20053;-90
2022/12/06 14:39:51;;;;;;;3.85;1.52;;;;;;;;;;6187878;23;19912;-89
2022/12/06 14:45:05;;;;;;;3.33;1.40;;;6.50;99.90;;;;;;6219092;23;20515;-89
2022/12/06 14:47:31;;;;;;;3.28;1.63;;;;;;;;;;6219297;23;20019;-90
2022/12/06 14:52:54;;;;;;;1.88;1.50;;;6.50;99.90;;;;;;6219114;23;20031;-89
2022/12/06 14:55:21;;;;;;;5.63;2.28;;;;;;;;;;6194169;23;20500;-90
2022/12/06 14:57:49;;;;;;;2.35;1.60;;;6.70;99.90;;;;;;6194810;23;20095;-89
2022/12/06 15:00:18;;;;;;;3.00;1.40;;;;;;;;;;6194090;23;20012;-89
2022/12/06 15:03:02;;;;;;;3.75;1.83;;;;;;;;;;6219297;23;20103;-89
2022/12/06 15:05:38;;;;;;;;;;;6.50;99.90;;;;;;6194689;23;20414;-89
2022/12/06 15:08:26;;;;;;;4.78;1.92;;;6.70;99.90;;;;;;6219153;23;19969;-89
2022/12/06 15:10:56;;;;;;;2.28;2.13;;;;;;;;;;6194395;23;20062;-89
2022/12/06 15:13:23;;;;;;;3.22;2.53;;;;;;;;;;6219192;23;20016;-90
2022/12/06 15:15:59;;;;;;;3.25;1.88;;;;;;;;;;6221440;23;20349;-89